sensor_id;sensor_type;location;lat;lon;timestamp;pressure;altitude;pressure_sealevel;temperature;humidity
18527;BME280;9393;42.158;24.748;2023-03-16T00:00:38;98458.50;;;11.65;56.32
18527;BME280;9393;42.158;24.748;2023-03-16T00:03:44;98458.84;;;11.62;56.98
18527;BME280;9393;42.158;24.748;2023-03-16T00:06:48;98459.50;;;11.64;57.47
18527;BME280;9393;42.158;24.748;2023-03-16T00:09:53;98453.72;;;11.69;57.68
18527;BME280;9393;42.158;24.748;2023-03-16T00:12:58;98456.59;;;11.59;58.23
18527;BME280;9393;42.158;24.748;2023-03-16T00:16:04;98456.53;;;11.68;58.05
18527;BME280;9393;42.158;24.748;2023-03-16T00:19:09;98459.78;;;11.70;58.35
18527;BME280;9393;42.158;24.748;2023-03-16T00:22:14;98457.44;;;11.52;59.14
18527;BME280;9393;42.158;24.748;2023-03-16T00:25:19;98455.50;;;11.54;59.40
18527;BME280;9393;42.158;24.748;2023-03-16T00:28:26;98452.59;;;11.49;60.31
18527;BME280;9393;42.158;24.748;2023-03-16T00:31:32;98455.41;;;11.62;59.88
18527;BME280;9393;42.158;24.748;2023-03-16T00:34:37;98454.63;;;11.61;60.47
18527;BME280;9393;42.158;24.748;2023-03-16T00:37:41;98458.22;;;11.60;61.38
18527;BME280;9393;42.158;24.748;2023-03-16T00:40:47;98456.34;;;11.69;61.12
18527;BME280;9393;42.158;24.748;2023-03-16T00:43:52;98464.19;;;11.69;61.40
18527;BME280;9393;42.158;24.748;2023-03-16T00:46:56;98454.78;;;11.60;62.27
18527;BME280;9393;42.158;24.748;2023-03-16T00:50:01;98463.56;;;11.67;62.62
18527;BME280;9393;42.158;24.748;2023-03-16T00:53:05;98465.69;;;11.63;62.84
18527;BME280;9393;42.158;24.748;2023-03-16T00:56:11;98468.28;;;11.72;62.79
18527;BME280;9393;42.158;24.748;2023-03-16T00:59:16;98467.81;;;11.68;63.47
18527;BME280;9393;42.158;24.748;2023-03-16T01:02:21;98475.78;;;11.66;63.96
18527;BME280;9393;42.158;24.748;2023-03-16T01:05:26;98475.63;;;11.68;64.08
18527;BME280;9393;42.158;24.748;2023-03-16T01:08:30;98488.69;;;11.68;64.46
18527;BME280;9393;42.158;24.748;2023-03-16T01:11:36;98494.28;;;11.65;65.02
18527;BME280;9393;42.158;24.748;2023-03-16T01:14:41;98484.34;;;11.60;65.57
18527;BME280;9393;42.158;24.748;2023-03-16T01:17:47;98487.41;;;11.72;65.49
18527;BME280;9393;42.158;24.748;2023-03-16T01:20:51;98491.13;;;11.47;66.81
18527;BME280;9393;42.158;24.748;2023-03-16T01:23:58;98493.25;;;11.66;66.42
18527;BME280;9393;42.158;24.748;2023-03-16T01:27:04;98491.03;;;11.32;67.59
18527;BME280;9393;42.158;24.748;2023-03-16T01:30:10;98494.28;;;11.65;66.28
18527;BME280;9393;42.158;24.748;2023-03-16T01:33:15;98492.53;;;11.57;66.48
18527;BME280;9393;42.158;24.748;2023-03-16T01:36:19;98506.72;;;11.24;66.90
18527;BME280;9393;42.158;24.748;2023-03-16T01:39:28;98505.59;;;11.27;66.63
18527;BME280;9393;42.158;24.748;2023-03-16T01:42:43;98507.50;;;11.33;66.33
18527;BME280;9393;42.158;24.748;2023-03-16T01:46:17;98501.97;;;11.28;66.29
18527;BME280;9393;42.158;24.748;2023-03-16T01:49:26;98507.06;;;11.21;66.03
18527;BME280;9393;42.158;24.748;2023-03-16T01:52:35;98509.97;;;10.87;66.46
18527;BME280;9393;42.158;24.748;2023-03-16T01:55:41;98517.44;;;10.98;65.52
18527;BME280;9393;42.158;24.748;2023-03-16T01:58:47;98505.91;;;10.93;65.18
18527;BME280;9393;42.158;24.748;2023-03-16T02:01:52;98515.69;;;10.83;65.13
18527;BME280;9393;42.158;24.748;2023-03-16T02:05:02;98523.03;;;10.87;64.52
18527;BME280;9393;42.158;24.748;2023-03-16T02:08:10;98532.53;;;10.72;64.97
18527;BME280;9393;42.158;24.748;2023-03-16T02:11:14;98538.72;;;10.63;65.40
18527;BME280;9393;42.158;24.748;2023-03-16T02:14:30;98548.19;;;10.72;64.61
18527;BME280;9393;42.158;24.748;2023-03-16T02:17:35;98548.00;;;10.65;64.85
18527;BME280;9393;42.158;24.748;2023-03-16T02:20:48;98551.09;;;10.69;64.35
18527;BME280;9393;42.158;24.748;2023-03-16T02:23:55;98558.56;;;10.88;63.57
18527;BME280;9393;42.158;24.748;2023-03-16T02:27:02;98549.50;;;10.60;64.57
18527;BME280;9393;42.158;24.748;2023-03-16T02:30:14;98562.19;;;10.63;64.33
18527;BME280;9393;42.158;24.748;2023-03-16T02:33:31;98561.03;;;10.65;64.19
18527;BME280;9393;42.158;24.748;2023-03-16T02:36:38;98562.16;;;10.79;63.82
18527;BME280;9393;42.158;24.748;2023-03-16T02:39:43;98561.72;;;10.68;64.12
18527;BME280;9393;42.158;24.748;2023-03-16T02:42:55;98563.50;;;10.75;63.94
18527;BME280;9393;42.158;24.748;2023-03-16T02:46:09;98577.19;;;10.53;64.16
18527;BME280;9393;42.158;24.748;2023-03-16T02:49:17;98571.03;;;10.54;64.14
18527;BME280;9393;42.158;24.748;2023-03-16T02:52:23;98578.53;;;10.33;64.24
18527;BME280;9393;42.158;24.748;2023-03-16T02:55:27;98577.53;;;10.26;64.49
18527;BME280;9393;42.158;24.748;2023-03-16T02:58:31;98580.16;;;10.50;63.75
18527;BME280;9393;42.158;24.748;2023-03-16T03:01:41;98591.84;;;10.70;62.79
18527;BME280;9393;42.158;24.748;2023-03-16T03:04:45;98591.88;;;10.38;63.61
18527;BME280;9393;42.158;24.748;2023-03-16T03:07:49;98604.25;;;10.44;63.41
18527;BME280;9393;42.158;24.748;2023-03-16T03:10:54;98607.03;;;10.34;63.21
18527;BME280;9393;42.158;24.748;2023-03-16T03:13:58;98611.59;;;10.32;63.61
18527;BME280;9393;42.158;24.748;2023-03-16T03:17:05;98611.53;;;10.08;63.75
18527;BME280;9393;42.158;24.748;2023-03-16T03:20:11;98618.28;;;10.27;63.17
18527;BME280;9393;42.158;24.748;2023-03-16T03:23:18;98613.28;;;9.91;64.32
18527;BME280;9393;42.158;24.748;2023-03-16T03:26:22;98621.78;;;10.01;63.93
18527;BME280;9393;42.158;24.748;2023-03-16T03:29:27;98629.38;;;9.79;64.58
18527;BME280;9393;42.158;24.748;2023-03-16T03:32:37;98625.66;;;9.81;64.50
18527;BME280;9393;42.158;24.748;2023-03-16T03:35:41;98636.31;;;9.62;64.83
18527;BME280;9393;42.158;24.748;2023-03-16T03:38:46;98636.72;;;9.83;64.26
18527;BME280;9393;42.158;24.748;2023-03-16T03:41:53;98641.59;;;9.78;64.57
18527;BME280;9393;42.158;24.748;2023-03-16T03:45:01;98633.56;;;9.63;64.64
18527;BME280;9393;42.158;24.748;2023-03-16T03:48:06;98642.19;;;9.64;64.88
18527;BME280;9393;42.158;24.748;2023-03-16T03:51:10;98646.94;;;9.69;64.83
18527;BME280;9393;42.158;24.748;2023-03-16T03:54:40;98649.09;;;9.81;64.33
18527;BME280;9393;42.158;24.748;2023-03-16T03:57:48;98656.53;;;9.76;64.50
18527;BME280;9393;42.158;24.748;2023-03-16T04:00:52;98659.91;;;9.60;64.94
18527;BME280;9393;42.158;24.748;2023-03-16T04:03:58;98655.72;;;9.68;64.25
18527;BME280;9393;42.158;24.748;2023-03-16T04:07:02;98662.06;;;9.65;64.42
18527;BME280;9393;42.158;24.748;2023-03-16T04:10:07;98652.56;;;9.56;64.88
18527;BME280;9393;42.158;24.748;2023-03-16T04:13:15;98654.34;;;9.47;64.79
18527;BME280;9393;42.158;24.748;2023-03-16T04:16:19;98661.91;;;9.33;65.13
18527;BME280;9393;42.158;24.748;2023-03-16T04:19:28;98662.72;;;9.33;65.14
18527;BME280;9393;42.158;24.748;2023-03-16T04:22:34;98668.50;;;9.53;64.44
18527;BME280;9393;42.158;24.748;2023-03-16T04:25:38;98679.72;;;9.53;64.01
18527;BME280;9393;42.158;24.748;2023-03-16T04:28:43;98681.47;;;9.45;64.40
18527;BME280;9393;42.158;24.748;2023-03-16T04:31:50;98683.28;;;9.52;63.85
18527;BME280;9393;42.158;24.748;2023-03-16T04:34:58;98684.69;;;9.39;63.94
18527;BME280;9393;42.158;24.748;2023-03-16T04:38:18;98695.06;;;9.31;64.13
18527;BME280;9393;42.158;24.748;2023-03-16T04:41:31;98691.72;;;9.21;64.48
18527;BME280;9393;42.158;24.748;2023-03-16T04:45:02;98699.09;;;9.25;63.72
18527;BME280;9393;42.158;24.748;2023-03-16T04:48:06;98708.63;;;9.42;63.17
18527;BME280;9393;42.158;24.748;2023-03-16T04:51:14;98710.88;;;9.37;62.74
18527;BME280;9393;42.158;24.748;2023-03-16T04:54:29;98712.81;;;9.35;62.36
18527;BME280;9393;42.158;24.748;2023-03-16T04:57:34;98719.47;;;9.38;62.25
18527;BME280;9393;42.158;24.748;2023-03-16T05:00:39;98722.88;;;9.30;62.33
18527;BME280;9393;42.158;24.748;2023-03-16T05:03:51;98729.69;;;9.31;62.01
18527;BME280;9393;42.158;24.748;2023-03-16T05:06:57;98732.00;;;9.34;61.86
18527;BME280;9393;42.158;24.748;2023-03-16T05:10:07;98743.94;;;9.19;62.00
18527;BME280;9393;42.158;24.748;2023-03-16T05:13:13;98746.28;;;9.30;61.72
18527;BME280;9393;42.158;24.748;2023-03-16T05:16:19;98756.50;;;9.24;61.08
18527;BME280;9393;42.158;24.748;2023-03-16T05:19:24;98757.16;;;9.08;61.50
18527;BME280;9393;42.158;24.748;2023-03-16T05:22:30;98764.88;;;9.18;61.07
18527;BME280;9393;42.158;24.748;2023-03-16T05:25:49;98771.09;;;9.25;60.32
18527;BME280;9393;42.158;24.748;2023-03-16T05:28:56;98777.31;;;9.06;61.04
18527;BME280;9393;42.158;24.748;2023-03-16T05:32:04;98779.72;;;8.99;61.26
18527;BME280;9393;42.158;24.748;2023-03-16T05:35:09;98795.44;;;9.16;60.90
18527;BME280;9393;42.158;24.748;2023-03-16T05:38:16;98787.78;;;9.14;60.26
18527;BME280;9393;42.158;24.748;2023-03-16T05:41:22;98798.25;;;9.04;59.87
18527;BME280;9393;42.158;24.748;2023-03-16T05:44:40;98795.66;;;9.04;60.09
18527;BME280;9393;42.158;24.748;2023-03-16T05:47:51;98804.81;;;9.08;60.13
18527;BME280;9393;42.158;24.748;2023-03-16T05:50:56;98803.53;;;9.12;59.40
18527;BME280;9393;42.158;24.748;2023-03-16T05:54:04;98807.53;;;9.07;59.50
18527;BME280;9393;42.158;24.748;2023-03-16T05:57:17;98811.19;;;9.14;58.90
18527;BME280;9393;42.158;24.748;2023-03-16T06:00:24;98814.09;;;8.93;59.83
18527;BME280;9393;42.158;24.748;2023-03-16T06:03:45;98820.78;;;9.13;59.30
18527;BME280;9393;42.158;24.748;2023-03-16T06:06:54;98817.06;;;8.98;59.56
18527;BME280;9393;42.158;24.748;2023-03-16T06:10:04;98821.22;;;8.91;60.03
18527;BME280;9393;42.158;24.748;2023-03-16T06:13:08;98825.09;;;8.87;59.74
18527;BME280;9393;42.158;24.748;2023-03-16T06:16:13;98832.16;;;8.95;59.77
18527;BME280;9393;42.158;24.748;2023-03-16T06:19:19;98837.78;;;8.90;59.84
18527;BME280;9393;42.158;24.748;2023-03-16T06:22:28;98839.06;;;9.04;59.47
18527;BME280;9393;42.158;24.748;2023-03-16T06:25:35;98846.28;;;8.92;59.40
18527;BME280;9393;42.158;24.748;2023-03-16T06:28:43;98846.72;;;9.05;58.94
18527;BME280;9393;42.158;24.748;2023-03-16T06:31:48;98844.56;;;9.01;58.64
18527;BME280;9393;42.158;24.748;2023-03-16T06:34:54;98861.13;;;9.00;58.49
18527;BME280;9393;42.158;24.748;2023-03-16T06:38:01;98860.47;;;8.98;58.19
18527;BME280;9393;42.158;24.748;2023-03-16T06:41:30;98862.84;;;8.91;58.80
18527;BME280;9393;42.158;24.748;2023-03-16T06:44:34;98875.31;;;8.88;59.04
18527;BME280;9393;42.158;24.748;2023-03-16T06:47:43;98881.63;;;8.85;58.34
18527;BME280;9393;42.158;24.748;2023-03-16T06:50:47;98882.69;;;9.10;58.21
18527;BME280;9393;42.158;24.748;2023-03-16T06:53:57;98886.69;;;9.04;58.23
18527;BME280;9393;42.158;24.748;2023-03-16T06:57:03;98879.31;;;9.00;58.10
18527;BME280;9393;42.158;24.748;2023-03-16T07:00:09;98894.44;;;8.69;58.95
18527;BME280;9393;42.158;24.748;2023-03-16T07:03:14;98899.53;;;8.88;58.43
18527;BME280;9393;42.158;24.748;2023-03-16T07:06:23;98898.53;;;9.17;57.96
18527;BME280;9393;42.158;24.748;2023-03-16T07:09:28;98912.34;;;9.35;57.33
18527;BME280;9393;42.158;24.748;2023-03-16T07:12:34;98920.38;;;9.24;57.37
18527;BME280;9393;42.158;24.748;2023-03-16T07:15:39;98917.19;;;9.30;57.43
18527;BME280;9393;42.158;24.748;2023-03-16T07:18:45;98907.81;;;9.19;57.45
18527;BME280;9393;42.158;24.748;2023-03-16T07:21:51;98917.91;;;9.22;57.49
18527;BME280;9393;42.158;24.748;2023-03-16T07:24:56;98916.50;;;9.28;57.38
18527;BME280;9393;42.158;24.748;2023-03-16T07:28:04;98931.81;;;9.13;57.26
18527;BME280;9393;42.158;24.748;2023-03-16T07:31:13;98924.38;;;9.36;56.99
18527;BME280;9393;42.158;24.748;2023-03-16T07:34:19;98925.50;;;9.16;57.70
18527;BME280;9393;42.158;24.748;2023-03-16T07:37:28;98935.16;;;9.23;57.39
18527;BME280;9393;42.158;24.748;2023-03-16T07:40:36;98920.44;;;9.32;57.44
18527;BME280;9393;42.158;24.748;2023-03-16T07:43:49;98923.09;;;9.04;58.23
18527;BME280;9393;42.158;24.748;2023-03-16T07:46:57;98929.25;;;9.03;57.94
18527;BME280;9393;42.158;24.748;2023-03-16T07:50:05;98926.97;;;9.18;58.01
18527;BME280;9393;42.158;24.748;2023-03-16T07:53:12;98928.34;;;9.40;58.09
18527;BME280;9393;42.158;24.748;2023-03-16T07:56:19;98926.78;;;9.47;57.79
18527;BME280;9393;42.158;24.748;2023-03-16T07:59:30;98921.97;;;9.78;57.00
18527;BME280;9393;42.158;24.748;2023-03-16T08:02:35;98930.47;;;9.62;57.59
18527;BME280;9393;42.158;24.748;2023-03-16T08:05:41;98933.44;;;9.67;56.47
18527;BME280;9393;42.158;24.748;2023-03-16T08:08:49;98922.28;;;9.75;55.96
18527;BME280;9393;42.158;24.748;2023-03-16T08:12:01;98930.53;;;9.70;56.10
18527;BME280;9393;42.158;24.748;2023-03-16T08:15:10;98928.25;;;9.67;56.39
18527;BME280;9393;42.158;24.748;2023-03-16T08:18:15;98938.94;;;9.82;55.60
18527;BME280;9393;42.158;24.748;2023-03-16T08:21:20;98946.59;;;9.83;55.84
18527;BME280;9393;42.158;24.748;2023-03-16T08:24:24;98948.41;;;10.08;55.16
18527;BME280;9393;42.158;24.748;2023-03-16T08:27:29;98946.09;;;10.05;55.27
18527;BME280;9393;42.158;24.748;2023-03-16T08:30:45;98943.16;;;10.26;54.28
18527;BME280;9393;42.158;24.748;2023-03-16T08:34:01;98961.94;;;10.38;54.26
18527;BME280;9393;42.158;24.748;2023-03-16T08:37:10;98966.63;;;10.26;54.62
18527;BME280;9393;42.158;24.748;2023-03-16T08:40:16;98960.06;;;10.22;54.31
18527;BME280;9393;42.158;24.748;2023-03-16T08:43:47;98967.13;;;10.30;54.64
18527;BME280;9393;42.158;24.748;2023-03-16T08:46:55;98969.50;;;10.41;53.72
18527;BME280;9393;42.158;24.748;2023-03-16T08:49:59;98972.25;;;10.39;53.78
18527;BME280;9393;42.158;24.748;2023-03-16T08:53:04;98961.63;;;10.67;53.01
18527;BME280;9393;42.158;24.748;2023-03-16T08:56:09;98978.16;;;10.83;52.83
18527;BME280;9393;42.158;24.748;2023-03-16T08:59:15;98972.97;;;10.91;52.48
18527;BME280;9393;42.158;24.748;2023-03-16T09:02:32;98969.72;;;10.97;52.25
18527;BME280;9393;42.158;24.748;2023-03-16T09:05:40;98971.78;;;11.28;52.01
18527;BME280;9393;42.158;24.748;2023-03-16T09:08:44;98968.47;;;11.18;51.64
18527;BME280;9393;42.158;24.748;2023-03-16T09:11:49;98977.84;;;10.86;52.36
18527;BME280;9393;42.158;24.748;2023-03-16T09:14:53;98981.72;;;11.24;51.65
18527;BME280;9393;42.158;24.748;2023-03-16T09:17:59;98976.53;;;11.32;51.38
18527;BME280;9393;42.158;24.748;2023-03-16T09:21:06;98975.88;;;11.30;51.23
18527;BME280;9393;42.158;24.748;2023-03-16T09:24:12;98982.41;;;11.42;51.15
18527;BME280;9393;42.158;24.748;2023-03-16T09:27:17;98968.34;;;11.19;51.59
18527;BME280;9393;42.158;24.748;2023-03-16T09:30:22;98977.72;;;11.54;50.87
18527;BME280;9393;42.158;24.748;2023-03-16T09:33:28;98978.03;;;11.51;50.60
18527;BME280;9393;42.158;24.748;2023-03-16T09:36:33;98970.53;;;11.48;50.66
18527;BME280;9393;42.158;24.748;2023-03-16T09:39:37;98984.25;;;11.66;50.06
18527;BME280;9393;42.158;24.748;2023-03-16T09:42:46;98981.94;;;11.63;49.87
18527;BME280;9393;42.158;24.748;2023-03-16T09:46:04;98975.31;;;11.77;49.30
18527;BME280;9393;42.158;24.748;2023-03-16T09:49:17;98978.41;;;11.88;49.08
18527;BME280;9393;42.158;24.748;2023-03-16T09:52:26;98984.41;;;11.64;49.41
18527;BME280;9393;42.158;24.748;2023-03-16T09:55:35;98985.88;;;11.67;49.71
18527;BME280;9393;42.158;24.748;2023-03-16T09:58:40;98985.59;;;11.78;49.16
18527;BME280;9393;42.158;24.748;2023-03-16T10:02:00;98987.56;;;11.84;48.89
18527;BME280;9393;42.158;24.748;2023-03-16T10:05:11;98979.56;;;12.02;48.72
18527;BME280;9393;42.158;24.748;2023-03-16T10:08:20;98989.53;;;12.06;48.59
18527;BME280;9393;42.158;24.748;2023-03-16T10:11:30;98992.44;;;12.11;48.12
18527;BME280;9393;42.158;24.748;2023-03-16T10:14:39;98991.44;;;12.21;48.01
18527;BME280;9393;42.158;24.748;2023-03-16T10:17:47;98995.91;;;11.96;48.55
18527;BME280;9393;42.158;24.748;2023-03-16T10:20:55;98987.22;;;12.03;48.59
18527;BME280;9393;42.158;24.748;2023-03-16T10:24:01;98989.50;;;12.23;48.17
18527;BME280;9393;42.158;24.748;2023-03-16T10:27:14;98982.47;;;12.23;47.19
18527;BME280;9393;42.158;24.748;2023-03-16T10:30:23;98990.16;;;12.08;48.01
18527;BME280;9393;42.158;24.748;2023-03-16T10:33:31;98979.16;;;12.45;46.94
18527;BME280;9393;42.158;24.748;2023-03-16T10:36:40;98978.75;;;12.73;46.92
18527;BME280;9393;42.158;24.748;2023-03-16T10:39:47;98983.72;;;12.98;46.78
18527;BME280;9393;42.158;24.748;2023-03-16T10:42:51;98968.13;;;12.74;46.65
18527;BME280;9393;42.158;24.748;2023-03-16T10:46:00;98993.66;;;12.64;46.78
18527;BME280;9393;42.158;24.748;2023-03-16T10:49:15;98987.66;;;13.02;46.19
18527;BME280;9393;42.158;24.748;2023-03-16T10:52:27;98985.41;;;12.83;46.42
18527;BME280;9393;42.158;24.748;2023-03-16T10:55:41;98991.75;;;12.50;46.89
18527;BME280;9393;42.158;24.748;2023-03-16T10:58:47;98984.09;;;12.40;47.26
18527;BME280;9393;42.158;24.748;2023-03-16T11:01:51;98984.44;;;12.76;46.49
18527;BME280;9393;42.158;24.748;2023-03-16T11:04:56;98979.56;;;12.73;46.51
18527;BME280;9393;42.158;24.748;2023-03-16T11:08:06;98975.06;;;12.98;46.10
18527;BME280;9393;42.158;24.748;2023-03-16T11:11:16;98974.53;;;12.72;46.23
18527;BME280;9393;42.158;24.748;2023-03-16T11:14:25;98969.56;;;12.77;46.75
18527;BME280;9393;42.158;24.748;2023-03-16T11:17:35;98969.00;;;12.97;46.16
18527;BME280;9393;42.158;24.748;2023-03-16T11:20:41;98981.88;;;12.68;46.21
18527;BME280;9393;42.158;24.748;2023-03-16T11:23:48;98981.97;;;12.83;46.05
18527;BME280;9393;42.158;24.748;2023-03-16T11:26:56;98974.66;;;12.78;46.26
18527;BME280;9393;42.158;24.748;2023-03-16T11:30:07;98974.00;;;12.76;46.71
18527;BME280;9393;42.158;24.748;2023-03-16T11:33:14;98981.19;;;12.82;46.39
18527;BME280;9393;42.158;24.748;2023-03-16T11:36:28;98976.69;;;12.52;46.57
18527;BME280;9393;42.158;24.748;2023-03-16T11:39:46;98972.41;;;12.67;46.12
18527;BME280;9393;42.158;24.748;2023-03-16T11:43:00;98974.72;;;12.54;46.29
18527;BME280;9393;42.158;24.748;2023-03-16T11:46:11;98975.28;;;12.33;46.85
18527;BME280;9393;42.158;24.748;2023-03-16T11:49:39;98974.22;;;12.58;46.58
18527;BME280;9393;42.158;24.748;2023-03-16T11:52:54;98980.75;;;12.62;46.23
18527;BME280;9393;42.158;24.748;2023-03-16T11:56:13;98978.13;;;12.62;46.43
18527;BME280;9393;42.158;24.748;2023-03-16T12:03:35;98990.25;;;12.55;46.21
18527;BME280;9393;42.158;24.748;2023-03-16T12:06:56;98985.59;;;12.82;45.94
18527;BME280;9393;42.158;24.748;2023-03-16T12:10:10;98988.06;;;12.75;45.92
18527;BME280;9393;42.158;24.748;2023-03-16T12:13:31;98989.66;;;12.84;46.00
18527;BME280;9393;42.158;24.748;2023-03-16T12:16:43;98994.56;;;12.87;45.89
18527;BME280;9393;42.158;24.748;2023-03-16T12:19:53;98983.81;;;12.82;45.74
18527;BME280;9393;42.158;24.748;2023-03-16T12:23:03;98988.09;;;12.67;46.10
18527;BME280;9393;42.158;24.748;2023-03-16T12:26:09;99006.06;;;12.78;45.98
18527;BME280;9393;42.158;24.748;2023-03-16T12:29:23;98998.88;;;12.72;45.63
18527;BME280;9393;42.158;24.748;2023-03-16T12:32:40;98994.66;;;12.55;46.06
18527;BME280;9393;42.158;24.748;2023-03-16T12:35:50;98999.75;;;12.48;46.09
18527;BME280;9393;42.158;24.748;2023-03-16T12:39:01;99001.06;;;12.36;46.52
18527;BME280;9393;42.158;24.748;2023-03-16T12:42:19;99003.22;;;12.41;46.55
18527;BME280;9393;42.158;24.748;2023-03-16T12:45:34;99001.56;;;12.48;46.40
18527;BME280;9393;42.158;24.748;2023-03-16T12:48:46;99009.22;;;12.49;46.45
18527;BME280;9393;42.158;24.748;2023-03-16T12:51:59;99002.03;;;12.51;46.45
18527;BME280;9393;42.158;24.748;2023-03-16T12:55:11;99008.59;;;12.39;47.01
18527;BME280;9393;42.158;24.748;2023-03-16T12:58:17;99007.91;;;12.53;46.87
18527;BME280;9393;42.158;24.748;2023-03-16T13:01:26;99009.09;;;12.10;47.04
18527;BME280;9393;42.158;24.748;2023-03-16T13:04:33;99017.78;;;12.27;47.25
18527;BME280;9393;42.158;24.748;2023-03-16T13:07:46;99020.41;;;12.03;47.72
18527;BME280;9393;42.158;24.748;2023-03-16T13:11:00;99031.63;;;12.03;47.59
18527;BME280;9393;42.158;24.748;2023-03-16T13:14:07;99031.66;;;12.11;47.39
18527;BME280;9393;42.158;24.748;2023-03-16T13:17:27;99036.22;;;12.34;46.98
18527;BME280;9393;42.158;24.748;2023-03-16T13:20:32;99032.13;;;12.15;47.27
18527;BME280;9393;42.158;24.748;2023-03-16T13:24:11;99044.41;;;12.06;47.67
18527;BME280;9393;42.158;24.748;2023-03-16T13:27:21;99041.63;;;12.08;47.37
18527;BME280;9393;42.158;24.748;2023-03-16T13:30:28;99052.56;;;12.11;47.33
18527;BME280;9393;42.158;24.748;2023-03-16T13:33:36;99048.63;;;12.07;47.71
18527;BME280;9393;42.158;24.748;2023-03-16T13:36:43;99047.66;;;12.08;47.80
18527;BME280;9393;42.158;24.748;2023-03-16T13:39:51;99053.53;;;11.94;48.01
18527;BME280;9393;42.158;24.748;2023-03-16T13:42:57;99062.53;;;11.92;48.33
18527;BME280;9393;42.158;24.748;2023-03-16T13:46:12;99061.84;;;11.82;48.49
18527;BME280;9393;42.158;24.748;2023-03-16T13:49:19;99070.94;;;11.70;48.86
18527;BME280;9393;42.158;24.748;2023-03-16T13:52:25;99075.31;;;11.69;48.75
18527;BME280;9393;42.158;24.748;2023-03-16T13:55:32;99074.34;;;11.62;49.17
18527;BME280;9393;42.158;24.748;2023-03-16T13:58:37;99087.06;;;11.57;49.22
18527;BME280;9393;42.158;24.748;2023-03-16T14:01:43;99087.16;;;11.39;49.54
18527;BME280;9393;42.158;24.748;2023-03-16T14:04:51;99080.81;;;11.42;49.33
18527;BME280;9393;42.158;24.748;2023-03-16T14:07:57;99084.41;;;11.07;50.54
18527;BME280;9393;42.158;24.748;2023-03-16T14:11:02;99100.81;;;11.25;49.96
18527;BME280;9393;42.158;24.748;2023-03-16T14:14:13;99100.41;;;11.46;49.59
18527;BME280;9393;42.158;24.748;2023-03-16T14:17:19;99103.28;;;11.35;50.12
18527;BME280;9393;42.158;24.748;2023-03-16T14:20:26;99110.47;;;11.33;50.16
18527;BME280;9393;42.158;24.748;2023-03-16T14:23:36;99115.44;;;11.10;50.48
18527;BME280;9393;42.158;24.748;2023-03-16T14:26:42;99118.09;;;10.92;51.07
18527;BME280;9393;42.158;24.748;2023-03-16T14:29:53;99127.97;;;11.06;50.90
18527;BME280;9393;42.158;24.748;2023-03-16T14:32:59;99124.03;;;10.77;51.48
18527;BME280;9393;42.158;24.748;2023-03-16T14:36:11;99134.06;;;10.89;51.16
18527;BME280;9393;42.158;24.748;2023-03-16T14:39:18;99138.81;;;10.94;50.91
18527;BME280;9393;42.158;24.748;2023-03-16T14:42:26;99139.00;;;10.75;51.89
18527;BME280;9393;42.158;24.748;2023-03-16T14:45:32;99153.94;;;10.47;52.43
18527;BME280;9393;42.158;24.748;2023-03-16T14:48:37;99155.34;;;10.41;52.68
18527;BME280;9393;42.158;24.748;2023-03-16T14:51:45;99153.72;;;10.40;52.81
18527;BME280;9393;42.158;24.748;2023-03-16T14:54:51;99159.59;;;10.42;52.84
18527;BME280;9393;42.158;24.748;2023-03-16T14:57:56;99162.28;;;10.33;52.87
18527;BME280;9393;42.158;24.748;2023-03-16T15:01:01;99167.72;;;10.39;52.71
18527;BME280;9393;42.158;24.748;2023-03-16T15:04:06;99172.34;;;10.45;52.43
18527;BME280;9393;42.158;24.748;2023-03-16T15:07:21;99176.88;;;10.26;53.53
18527;BME280;9393;42.158;24.748;2023-03-16T15:10:27;99188.91;;;10.09;53.98
18527;BME280;9393;42.158;24.748;2023-03-16T15:13:33;99183.66;;;10.36;53.17
18527;BME280;9393;42.158;24.748;2023-03-16T15:16:54;99182.84;;;10.18;53.51
18527;BME280;9393;42.158;24.748;2023-03-16T15:19:59;99192.13;;;9.93;53.91
18527;BME280;9393;42.158;24.748;2023-03-16T15:23:05;99209.78;;;9.82;54.22
18527;BME280;9393;42.158;24.748;2023-03-16T15:26:10;99207.53;;;9.87;54.23
18527;BME280;9393;42.158;24.748;2023-03-16T15:29:14;99218.69;;;10.06;53.60
18527;BME280;9393;42.158;24.748;2023-03-16T15:32:21;99215.78;;;10.09;52.96
18527;BME280;9393;42.158;24.748;2023-03-16T15:35:26;99221.84;;;10.00;53.21
18527;BME280;9393;42.158;24.748;2023-03-16T15:38:32;99230.50;;;10.01;53.27
18527;BME280;9393;42.158;24.748;2023-03-16T15:41:38;99228.78;;;9.92;53.60
18527;BME280;9393;42.158;24.748;2023-03-16T15:44:49;99234.31;;;10.06;52.90
18527;BME280;9393;42.158;24.748;2023-03-16T15:47:53;99242.97;;;9.70;53.57
18527;BME280;9393;42.158;24.748;2023-03-16T15:50:59;99250.03;;;9.87;53.19
18527;BME280;9393;42.158;24.748;2023-03-16T15:54:07;99241.63;;;9.66;53.58
18527;BME280;9393;42.158;24.748;2023-03-16T15:57:12;99253.28;;;9.62;54.08
18527;BME280;9393;42.158;24.748;2023-03-16T16:00:27;99262.56;;;9.74;53.89
18527;BME280;9393;42.158;24.748;2023-03-16T16:03:32;99272.69;;;9.77;54.17
18527;BME280;9393;42.158;24.748;2023-03-16T16:06:37;99270.88;;;9.87;53.63
18527;BME280;9393;42.158;24.748;2023-03-16T16:09:42;99271.16;;;9.84;53.76
18527;BME280;9393;42.158;24.748;2023-03-16T16:12:48;99272.22;;;9.54;54.44
18527;BME280;9393;42.158;24.748;2023-03-16T16:15:55;99286.56;;;9.68;54.02
18527;BME280;9393;42.158;24.748;2023-03-16T16:18:59;99295.16;;;9.78;53.94
18527;BME280;9393;42.158;24.748;2023-03-16T16:22:04;99302.28;;;9.76;54.01
18527;BME280;9393;42.158;24.748;2023-03-16T16:25:11;99307.94;;;9.72;54.39
18527;BME280;9393;42.158;24.748;2023-03-16T16:28:18;99306.31;;;9.61;54.66
18527;BME280;9393;42.158;24.748;2023-03-16T16:31:24;99312.91;;;9.65;54.69
18527;BME280;9393;42.158;24.748;2023-03-16T16:34:28;99330.75;;;9.50;55.36
18527;BME280;9393;42.158;24.748;2023-03-16T16:37:33;99323.78;;;9.32;55.90
18527;BME280;9393;42.158;24.748;2023-03-16T16:40:39;99331.16;;;9.46;55.34
18527;BME280;9393;42.158;24.748;2023-03-16T16:43:47;99349.41;;;9.27;56.23
18527;BME280;9393;42.158;24.748;2023-03-16T16:46:53;99350.88;;;9.48;55.71